Time;durP1;ratioP1;P1;durP2;ratioP2;P2;SDS_P1;SDS_P2;PMS_P1;PMS_P2;Temp;Humidity;BMP_temperature;BMP_pressure;BME280_temperature;BME280_humidity;BME280_pressure;Samples;Min_cycle;Max_cycle;Signal;HPM_P1;HPM_P2
2021/08/08 00:01:34;;;;;;;0.20;0.20;;;;;;;13.61;100.00;99623.47;5068343;28;20747;-85
2021/08/08 00:04:09;;;;;;;0.20;0.20;;;;;;;13.56;100.00;99631.84;5058811;28;20044;-85
2021/08/08 00:06:37;;;;;;;0.20;0.20;;;;;;;13.58;100.00;99633.13;5050563;28;20497;-85
2021/08/08 00:09:06;;;;;;;0.20;0.20;;;;;;;13.59;100.00;99632.00;5065143;28;20056;-84
2021/08/08 00:11:34;;;;;;;0.20;0.20;;;;;;;13.62;100.00;99638.75;5060841;28;20049;-84
2021/08/08 00:14:10;;;;;;;0.20;0.20;;;;;;;13.60;100.00;99628.16;5066729;28;20401;-84
2021/08/08 00:16:38;;;;;;;0.20;0.20;;;;;;;13.62;100.00;99633.28;5070349;28;20051;-84
2021/08/08 00:19:37;;;;;;;0.35;0.20;;;;;;;13.66;100.00;99627.97;5069378;28;20412;-84
2021/08/08 00:22:07;;;;;;;0.10;0.10;;;;;;;13.63;100.00;99623.16;5071218;28;20063;-85
2021/08/08 00:24:35;;;;;;;0.28;0.20;;;;;;;13.76;100.00;99636.63;5069690;28;20048;-86
2021/08/08 00:27:11;;;;;;;0.20;0.20;;;;;;;13.75;100.00;99635.03;5067787;28;20052;-86
2021/08/08 00:29:41;;;;;;;0.13;0.13;;;;;;;13.72;100.00;99630.19;5063947;28;20056;-86
2021/08/08 00:32:15;;;;;;;0.20;0.20;;;;;;;13.73;100.00;99628.28;5069843;28;20393;-85
2021/08/08 00:34:50;;;;;;;0.30;0.20;;;;;;;13.80;100.00;99609.44;5064245;28;20317;-85
2021/08/08 00:37:19;;;;;;;0.10;0.10;;;;;;;13.82;100.00;99634.50;5069356;28;20040;-85
2021/08/08 00:40:02;;;;;;;0.20;0.20;;;;;;;13.85;100.00;99639.34;5069028;28;20405;-85
2021/08/08 00:42:45;;;;;;;0.20;0.20;;;;;;;13.89;100.00;99639.47;5066461;28;20048;-85
2021/08/08 00:45:17;;;;;;;0.10;0.10;;;;;;;13.74;100.00;99630.69;5069450;28;20055;-86
2021/08/08 00:48:06;;;;;;;0.10;0.10;;;;;;;13.81;100.00;99641.13;5074917;28;20067;-85
2021/08/08 00:50:41;;;;;;;0.57;0.20;;;;;;;13.80;100.00;99641.44;5073217;28;20048;-86
2021/08/08 00:53:43;;;;;;;0.17;0.17;;;;;;;13.87;100.00;99655.41;5072548;28;20053;-86
2021/08/08 00:56:16;;;;;;;0.20;0.20;;;;;;;13.80;100.00;99677.00;5071136;28;20049;-86
2021/08/08 00:58:50;;;;;;;0.57;0.20;;;;;;;13.95;100.00;99690.13;5061454;28;20393;-88
2021/08/08 01:01:26;;;;;;;0.10;0.10;;;;;;;13.92;100.00;99664.25;5072175;28;20068;-86
2021/08/08 01:07:47;;;;;;;0.20;0.20;;;;;;;13.88;100.00;99663.28;5073102;28;20059;-86
2021/08/08 01:10:16;;;;;;;0.20;0.20;;;;;;;13.94;100.00;99678.38;5071005;28;20387;-86
2021/08/08 01:12:46;;;;;;;0.20;0.20;;;;;;;13.92;100.00;99677.91;5053640;28;20060;-87
2021/08/08 01:15:15;;;;;;;0.20;0.20;;;;;;;13.88;100.00;99678.88;5069587;28;20075;-87
2021/08/08 01:21:35;;;;;;;0.20;0.20;;;;;;;13.78;100.00;99675.38;5067393;28;20045;-86
2021/08/08 01:28:42;;;;;;;0.20;0.20;;;;;;;13.72;100.00;99681.34;5069907;28;19913;-86
2021/08/08 01:31:11;;;;;;;0.20;0.20;;;;;;;13.67;100.00;99676.03;5069204;28;20048;-86
2021/08/08 01:33:45;;;;;;;0.30;0.20;;;;;;;13.75;100.00;99683.44;5072521;28;20052;-86
2021/08/08 01:36:17;;;;;;;0.20;0.20;;;;;;;13.72;100.00;99681.34;5072094;28;20053;-86
2021/08/08 01:38:52;;;;;;;0.20;0.20;;;;;;;13.74;100.00;99690.84;5067318;28;20795;-86
2021/08/08 01:41:28;;;;;;;0.20;0.20;;;;;;;13.69;100.00;99682.81;5071590;28;20056;-86
2021/08/08 01:44:02;;;;;;;0.10;0.10;;;;;;;13.74;100.00;99688.09;5072412;28;20049;-85
2021/08/08 01:46:41;;;;;;;0.70;0.20;;;;;;;13.71;100.00;99683.28;5072272;28;20056;-86
2021/08/08 01:49:20;;;;;;;0.20;0.20;;;;;;;13.72;100.00;99687.59;5072359;28;20428;-86
2021/08/08 01:51:51;;;;;;;0.20;0.20;;;;;;;13.67;100.00;99682.34;5071216;28;20036;-85
2021/08/08 01:54:22;;;;;;;0.20;0.20;;;;;;;13.66;100.00;99682.63;5072272;28;20049;-86
2021/08/08 01:57:01;;;;;;;0.20;0.20;;;;;;;13.63;100.00;99692.31;5071806;28;20060;-86
2021/08/08 01:59:33;;;;;;;0.20;0.20;;;;;;;13.54;100.00;99689.56;5067094;28;20049;-87
2021/08/08 02:02:18;;;;;;;0.20;0.20;;;;;;;13.48;100.00;99693.63;5067951;28;20059;-86
2021/08/08 02:05:01;;;;;;;0.25;0.25;;;;;;;13.43;100.00;99696.50;5065165;28;20501;-87
2021/08/08 02:07:30;;;;;;;0.20;0.20;;;;;;;13.45;100.00;99702.47;5071799;28;20405;-87
2021/08/08 02:10:04;;;;;;;0.20;0.20;;;;;;;13.45;100.00;99697.00;5069206;28;20053;-86
2021/08/08 02:12:32;;;;;;;0.43;0.30;;;;;;;13.41;100.00;99694.09;5063550;28;20055;-87
2021/08/08 02:15:12;;;;;;;0.20;0.20;;;;;;;13.41;100.00;99698.78;5052954;28;20397;-87
2021/08/08 02:17:52;;;;;;;0.20;0.20;;;;;;;13.38;100.00;99697.50;5067473;28;20048;-86
2021/08/08 02:20:29;;;;;;;;;;;;;;;13.36;100.00;99688.78;5072402;28;20053;-86
2021/08/08 02:23:20;;;;;;;0.20;0.20;;;;;;;13.35;100.00;99689.09;5071492;28;19921;-86
2021/08/08 02:25:56;;;;;;;0.20;0.20;;;;;;;13.34;100.00;99685.56;5070197;28;20063;-87
2021/08/08 02:28:35;;;;;;;0.20;0.20;;;;;;;13.20;100.00;99677.53;5069877;28;20044;-86
2021/08/08 02:31:11;;;;;;;0.20;0.20;;;;;;;13.18;100.00;99687.19;5071025;28;20052;-86
2021/08/08 02:33:55;;;;;;;0.17;0.17;;;;;;;13.05;100.00;99667.06;5076651;28;20773;-86
2021/08/08 02:36:30;;;;;;;0.10;0.10;;;;;;;13.08;100.00;99686.38;5051681;28;20049;-87
2021/08/08 02:38:58;;;;;;;0.10;0.10;;;;;;;13.07;100.00;99692.16;5063631;28;20052;-86
2021/08/08 02:41:32;;;;;;;0.20;0.20;;;;;;;13.03;100.00;99702.91;5070655;28;20413;-86
2021/08/08 02:44:01;;;;;;;0.20;0.20;;;;;;;12.86;100.00;99698.25;5070752;28;20053;-86
2021/08/08 02:46:37;;;;;;;0.20;0.20;;;;;;;12.88;100.00;99698.72;5071269;28;20051;-86
2021/08/08 02:49:11;;;;;;;0.20;0.20;;;;;;;12.79;100.00;99699.81;5072277;28;20040;-86
2021/08/08 02:51:45;;;;;;;0.30;0.28;;;;;;;12.81;100.00;99708.50;5071093;28;20048;-86
2021/08/08 02:54:20;;;;;;;0.20;0.20;;;;;;;12.79;100.00;99700.66;5071002;28;20048;-86
2021/08/08 02:56:53;;;;;;;0.28;0.20;;;;;;;12.75;100.00;99705.13;5070808;28;20519;-86
2021/08/08 02:59:27;;;;;;;0.10;0.10;;;;;;;12.73;100.00;99710.91;5071131;28;20040;-87
2021/08/08 03:01:58;;;;;;;0.30;0.30;;;;;;;12.70;100.00;99711.53;5058444;28;20057;-86
2021/08/08 03:04:32;;;;;;;0.20;0.20;;;;;;;12.70;100.00;99714.25;5070250;28;20485;-86
2021/08/08 03:07:05;;;;;;;0.20;0.20;;;;;;;12.57;100.00;99702.34;5070780;28;20044;-87
2021/08/08 03:09:39;;;;;;;0.15;0.15;;;;;;;12.58;100.00;99719.53;5069946;28;20500;-86
2021/08/08 03:12:39;;;;;;;0.20;0.20;;;;;;;12.61;100.00;99718.91;5069752;28;20044;-87
2021/08/08 03:15:12;;;;;;;0.20;0.20;;;;;;;12.62;100.00;99711.50;5070684;28;20060;-86
2021/08/08 03:17:47;;;;;;;0.20;0.20;;;;;;;12.48;100.00;99693.31;5070762;28;20489;-86
2021/08/08 03:20:15;;;;;;;0.20;0.20;;;;;;;12.58;100.00;99708.59;5071067;28;20059;-86
2021/08/08 03:22:52;;;;;;;0.10;0.10;;;;;;;12.53;100.00;99715.03;5070296;28;20041;-86
2021/08/08 03:25:21;;;;;;;0.20;0.20;;;;;;;12.55;100.00;99710.06;5071062;28;20512;-86
2021/08/08 03:27:50;;;;;;;0.20;0.20;;;;;;;12.53;100.00;99722.41;5070452;28;20053;-85
2021/08/08 03:30:25;;;;;;;0.20;0.20;;;;;;;12.48;100.00;99722.56;5070058;28;20489;-87
2021/08/08 03:33:04;;;;;;;0.20;0.20;;;;;;;12.45;100.00;99720.47;5070563;28;20048;-86
2021/08/08 03:35:37;;;;;;;0.20;0.20;;;;;;;12.49;100.00;99719.50;5067992;28;20064;-86
2021/08/08 03:38:07;;;;;;;0.20;0.20;;;;;;;12.44;100.00;99710.66;5050841;28;20389;-86
2021/08/08 03:40:36;;;;;;;0.43;0.30;;;;;;;12.44;100.00;99713.38;5067956;28;20040;-87
2021/08/08 03:43:09;;;;;;;0.15;0.15;;;;;;;12.48;100.00;99722.56;5070164;28;20052;-86
2021/08/08 03:45:38;;;;;;;0.20;0.20;;;;;;;12.49;100.00;99726.91;5070478;28;20052;-86
2021/08/08 03:48:08;;;;;;;0.20;0.20;;;;;;;12.40;100.00;99719.47;5069752;28;20055;-86
2021/08/08 03:50:41;;;;;;;0.13;0.13;;;;;;;12.48;100.00;99736.19;5050495;28;20045;-86
2021/08/08 03:53:15;;;;;;;0.17;0.17;;;;;;;12.40;100.00;99733.13;5050178;28;20045;-86
2021/08/08 03:55:48;;;;;;;0.10;0.10;;;;;;;12.44;100.00;99736.00;5058772;28;20044;-86
2021/08/08 03:58:16;;;;;;;0.10;0.10;;;;;;;12.44;100.00;99735.22;5072145;28;20052;-86
2021/08/08 04:00:49;;;;;;;0.20;0.20;;;;;;;12.44;100.00;99737.94;5070497;28;20060;-87
2021/08/08 04:03:24;;;;;;;0.20;0.20;;;;;;;12.40;100.00;99746.78;5069623;28;20044;-86
2021/08/08 04:05:52;;;;;;;0.10;0.10;;;;;;;12.41;100.00;99744.84;5070449;28;20057;-86
2021/08/08 04:08:29;;;;;;;0.20;0.20;;;;;;;12.39;100.00;99734.25;5070453;28;20048;-86
2021/08/08 04:10:58;;;;;;;0.20;0.20;;;;;;;12.43;100.00;99758.97;5069807;28;20053;-87
2021/08/08 04:13:29;;;;;;;0.20;0.20;;;;;;;12.42;100.00;99762.81;5069502;28;20048;-86
2021/08/08 04:15:57;;;;;;;0.20;0.20;;;;;;;12.42;100.00;99760.88;5064122;28;20497;-86
2021/08/08 04:18:32;;;;;;;0.20;0.20;;;;;;;12.32;100.00;99753.00;5065835;28;20055;-86
2021/08/08 04:21:05;;;;;;;0.20;0.20;;;;;;;12.43;100.00;99764.44;5072070;28;20056;-86
2021/08/08 04:23:41;;;;;;;0.30;0.30;;;;;;;12.36;100.00;99762.16;5074039;28;20045;-86
2021/08/08 04:26:10;;;;;;;0.20;0.20;;;;;;;12.40;100.00;99765.03;5074453;28;20053;-86
2021/08/08 04:29:10;;;;;;;0.20;0.20;;;;;;;12.42;100.00;99757.38;5070937;28;20055;-86
2021/08/08 04:31:44;;;;;;;0.40;0.20;;;;;;;12.46;100.00;99763.81;5069152;28;20059;-87
2021/08/08 04:34:14;;;;;;;0.20;0.20;;;;;;;12.46;100.00;99761.06;5071615;28;20059;-86
2021/08/08 04:36:48;;;;;;;0.20;0.20;;;;;;;12.56;100.00;99768.16;5054657;28;20579;-87
2021/08/08 04:39:22;;;;;;;0.20;0.20;;;;;;;12.58;100.00;99755.00;5059586;28;20051;-86
2021/08/08 04:41:52;;;;;;;0.22;0.20;;;;;;;12.59;100.00;99753.88;5075513;28;20048;-86
2021/08/08 04:44:26;;;;;;;0.20;0.20;;;;;;;12.73;100.00;99754.59;5074236;28;20392;-86
2021/08/08 04:46:59;;;;;;;0.20;0.20;;;;;;;12.95;100.00;99774.69;5074438;28;20473;-86
2021/08/08 04:49:30;;;;;;;0.10;0.10;;;;;;;12.96;100.00;99770.84;5073899;28;20052;-85
2021/08/08 04:52:04;;;;;;;0.20;0.20;;;;;;;13.06;100.00;99778.78;5074088;28;20327;-86
2021/08/08 04:54:32;;;;;;;0.20;0.20;;;;;;;13.07;100.00;99777.63;5073905;28;20063;-86
2021/08/08 04:57:01;;;;;;;0.20;0.20;;;;;;;13.13;100.00;99772.00;5073795;28;20048;-85
2021/08/08 04:59:34;;;;;;;0.20;0.20;;;;;;;13.06;100.00;99751.44;5074063;28;20045;-86
2021/08/08 05:02:08;;;;;;;0.20;0.20;;;;;;;13.23;100.00;99779.88;5072981;28;20501;-85
2021/08/08 05:04:43;;;;;;;0.20;0.20;;;;;;;13.21;100.00;99772.00;5075720;28;20043;-86
2021/08/08 05:07:16;;;;;;;0.20;0.20;;;;;;;13.29;100.00;99764.97;5074056;28;20056;-86
2021/08/08 05:09:49;;;;;;;0.20;0.20;;;;;;;13.24;100.00;99763.19;5070601;28;20517;-86
2021/08/08 05:12:23;;;;;;;0.20;0.20;;;;;;;13.24;100.00;99768.66;5064326;28;20060;-86
2021/08/08 05:15:02;;;;;;;0.20;0.20;;;;;;;13.27;100.00;99767.19;5073472;28;20052;-86
2021/08/08 05:17:31;;;;;;;0.20;0.20;;;;;;;13.30;100.00;99773.94;5067213;28;20048;-85
2021/08/08 05:20:07;;;;;;;0.20;0.20;;;;;;;13.30;100.00;99758.38;5071693;28;20045;-85
2021/08/08 05:22:58;;;;;;;0.20;0.20;;;;;;;13.35;100.00;99763.69;5075037;28;20049;-86
2021/08/08 05:25:26;;;;;;;0.20;0.20;;;;;;;13.32;100.00;99769.00;5070455;28;20063;-85
2021/08/08 05:27:55;;;;;;;0.20;0.20;;;;;;;13.28;100.00;99766.09;5073132;28;20060;-85
2021/08/08 05:30:28;;;;;;;0.20;0.20;;;;;;;13.32;100.00;99750.66;5064610;28;20051;-84
2021/08/08 05:33:02;;;;;;;0.20;0.20;;;;;;;13.38;100.00;99767.72;5071992;28;20055;-89
2021/08/08 05:35:36;;;;;;;0.20;0.20;;;;;;;13.38;100.00;99771.28;5056496;28;20063;-85
2021/08/08 05:38:10;;;;;;;0.20;0.20;;;;;;;13.39;100.00;99781.06;5072910;28;20040;-85
2021/08/08 05:40:43;;;;;;;0.10;0.10;;;;;;;13.41;100.00;99778.81;5074852;28;20037;-85
2021/08/08 05:43:16;;;;;;;0.20;0.20;;;;;;;13.40;100.00;99785.41;5074245;28;20400;-85
2021/08/08 05:45:47;;;;;;;0.20;0.20;;;;;;;13.40;100.00;99782.69;5072898;28;20064;-85
2021/08/08 05:48:17;;;;;;;0.20;0.20;;;;;;;13.52;100.00;99789.44;5066100;28;20052;-85
2021/08/08 05:50:56;;;;;;;0.10;0.10;;;;;;;13.61;100.00;99791.03;5063191;28;20067;-85
2021/08/08 05:53:26;;;;;;;0.35;0.20;;;;;;;13.65;100.00;99796.66;5072377;28;20065;-85
2021/08/08 05:55:59;;;;;;;0.20;0.20;;;;;;;13.63;100.00;99798.94;5072416;28;20044;-85
2021/08/08 05:58:37;;;;;;;0.35;0.20;;;;;;;13.59;100.00;99776.91;5052959;28;20053;-85
2021/08/08 06:01:10;;;;;;;0.20;0.20;;;;;;;13.75;100.00;99799.09;5069953;28;20036;-85
2021/08/08 06:03:44;;;;;;;0.20;0.20;;;;;;;13.90;100.00;99805.19;5069828;28;20052;-86
2021/08/08 06:06:50;;;;;;;0.20;0.20;;;;;;;13.97;100.00;99804.69;5055281;28;20504;-86
2021/08/08 06:09:23;;;;;;;0.20;0.20;;;;;;;14.04;100.00;99799.53;5067129;28;20064;-85
2021/08/08 06:11:56;;;;;;;0.20;0.20;;;;;;;14.06;100.00;99800.03;5065324;28;20903;-86
2021/08/08 06:14:25;;;;;;;0.20;0.20;;;;;;;14.22;100.00;99801.09;5069704;28;20497;-86
2021/08/08 06:16:58;;;;;;;0.20;0.20;;;;;;;14.24;100.00;99809.00;5067333;28;20044;-86
2021/08/08 06:19:27;;;;;;;0.20;0.20;;;;;;;14.28;100.00;99805.25;5072204;28;20564;-86
2021/08/08 06:21:56;;;;;;;0.38;0.20;;;;;;;14.43;100.00;99812.16;5051981;28;20045;-86
2021/08/08 06:24:25;;;;;;;0.20;0.20;;;;;;;14.44;100.00;99821.97;5059989;28;20074;-86
2021/08/08 06:26:58;;;;;;;0.20;0.20;;;;;;;14.48;100.00;99822.09;5070341;28;20063;-87
2021/08/08 06:29:31;;;;;;;0.20;0.20;;;;;;;14.36;100.00;99802.81;5066488;28;20053;-85
2021/08/08 06:32:05;;;;;;;0.20;0.20;;;;;;;14.12;100.00;99829.59;5067088;28;20543;-86
2021/08/08 06:34:34;;;;;;;0.20;0.20;;;;;;;14.03;100.00;99814.31;5070494;28;20045;-86
2021/08/08 06:37:18;;;;;;;0.20;0.20;;;;;;;14.12;100.00;99829.59;5068100;28;20036;-86
2021/08/08 06:39:52;;;;;;;0.20;0.20;;;;;;;14.02;100.00;99829.94;5068959;28;20048;-86
2021/08/08 06:42:25;;;;;;;0.20;0.20;;;;;;;14.04;100.00;99841.34;5070586;28;20056;-86
2021/08/08 06:45:01;;;;;;;0.10;0.10;;;;;;;14.08;100.00;99833.31;5071602;28;20501;-86
2021/08/08 06:47:34;;;;;;;0.20;0.20;;;;;;;13.97;100.00;99838.31;5071662;28;20051;-87
2021/08/08 06:50:09;;;;;;;0.20;0.20;;;;;;;13.95;100.00;99833.16;5071970;28;20413;-86
2021/08/08 06:52:43;;;;;;;0.30;0.20;;;;;;;14.00;100.00;99837.66;5070531;28;20067;-86
2021/08/08 06:55:42;;;;;;;0.20;0.20;;;;;;;14.00;100.00;99836.88;5066547;28;20048;-85
2021/08/08 06:58:10;;;;;;;0.10;0.10;;;;;;;14.02;100.00;99834.63;5062358;28;20071;-87
2021/08/08 07:00:39;;;;;;;0.10;0.10;;;;;;;14.07;100.00;99854.41;5073081;28;20049;-86
2021/08/08 07:03:15;;;;;;;0.20;0.20;;;;;;;14.11;100.00;99840.88;5071345;28;20087;-86
2021/08/08 07:05:45;;;;;;;0.20;0.20;;;;;;;14.05;100.00;99847.66;5061890;28;20049;-86
2021/08/08 07:08:20;;;;;;;0.20;0.20;;;;;;;14.00;100.00;99842.34;5051216;28;20049;-85
2021/08/08 07:10:49;;;;;;;0.20;0.20;;;;;;;14.01;100.00;99857.63;5071173;28;20048;-85
2021/08/08 07:13:22;;;;;;;0.20;0.20;;;;;;;14.00;100.00;99854.06;5050850;28;20064;-86
2021/08/08 07:15:51;;;;;;;0.20;0.20;;;;;;;14.03;100.00;99852.63;5062660;28;20045;-85
2021/08/08 07:18:24;;;;;;;0.10;0.10;;;;;;;14.09;100.00;99865.81;5056214;28;20060;-85
2021/08/08 07:20:57;;;;;;;0.20;0.20;;;;;;;14.09;100.00;99860.34;5070888;28;20055;-86
2021/08/08 07:24:20;;;;;;;0.20;0.20;;;;;;;14.04;100.00;99870.66;5070409;28;20048;-89
2021/08/08 07:26:50;;;;;;;0.25;0.20;;;;;;;14.01;100.00;99857.63;5070542;28;20531;-87
2021/08/08 07:29:55;;;;;;;0.20;0.20;;;;;;;14.05;100.00;99866.81;5066389;28;20045;-88
2021/08/08 07:32:31;;;;;;;0.17;0.17;;;;;;;14.03;100.00;99863.56;5068082;28;20052;-87
2021/08/08 07:35:05;;;;;;;0.20;0.20;;;;;;;14.24;100.00;99861.00;5068250;28;20412;-86
2021/08/08 07:37:42;;;;;;;0.20;0.20;;;;;;;14.20;100.00;99860.03;5073721;28;20394;-86
2021/08/08 07:40:15;;;;;;;0.10;0.10;;;;;;;14.17;100.00;99875.16;5062368;28;20045;-87
2021/08/08 07:42:50;;;;;;;0.20;0.20;;;;;;;14.32;100.00;99873.84;5068773;28;20059;-87
2021/08/08 07:46:15;;;;;;;0.20;0.20;;;;;;;14.58;100.00;99872.97;5066199;28;20048;-86
2021/08/08 07:49:18;;;;;;;0.20;0.20;;;;;;;14.59;100.00;99880.84;5070181;28;20060;-87
2021/08/08 07:52:03;;;;;;;0.20;0.20;;;;;;;14.67;100.00;99882.00;5061590;28;20048;-85
2021/08/08 07:54:31;;;;;;;0.20;0.20;;;;;;;14.65;100.00;99883.47;5064537;28;20060;-87
2021/08/08 07:57:03;;;;;;;0.20;0.20;;;;;;;14.59;100.00;99889.06;5070381;28;20053;-88
2021/08/08 07:59:50;;;;;;;0.20;0.20;;;;;;;14.57;100.00;99887.78;5063520;28;20052;-88
2021/08/08 08:02:19;;;;;;;0.20;0.20;;;;;;;14.49;100.00;99892.16;5060886;28;20067;-87
2021/08/08 08:04:48;;;;;;;0.10;0.10;;;;;;;14.47;100.00;99891.69;5064580;28;20045;-86
2021/08/08 08:07:22;;;;;;;0.10;0.10;;;;;;;14.49;100.00;99897.66;5064512;28;20043;-85
2021/08/08 08:10:00;;;;;;;0.20;0.20;;;;;;;14.41;100.00;99896.53;5058241;28;20049;-86
2021/08/08 08:12:38;;;;;;;0.20;0.20;;;;;;;14.40;100.00;99896.84;5059022;28;20417;-86
2021/08/08 08:15:18;;;;;;;0.20;0.20;;;;;;;14.27;100.00;99909.59;5062642;28;20413;-85
2021/08/08 08:17:49;;;;;;;0.20;0.20;;;;;;;14.30;100.00;99906.19;5066290;28;20037;-86
2021/08/08 08:20:30;;;;;;;0.17;0.17;;;;;;;14.33;100.00;99912.97;5067312;28;21783;-86
2021/08/08 08:23:03;;;;;;;0.20;0.20;;;;;;;14.44;100.00;99919.72;5085316;28;20413;-87
2021/08/08 08:25:39;;;;;;;0.28;0.28;;;;;;;14.36;100.00;99924.09;5065445;28;20052;-86
2021/08/08 08:28:13;;;;;;;0.10;0.10;;;;;;;14.18;100.00;99920.53;5060074;28;20045;-85
2021/08/08 08:30:44;;;;;;;0.10;0.10;;;;;;;14.16;100.00;99931.00;5068592;28;20051;-86
2021/08/08 08:33:17;;;;;;;0.20;0.20;;;;;;;14.18;100.00;99926.00;5059400;28;20056;-87
2021/08/08 08:35:51;;;;;;;0.20;0.20;;;;;;;14.25;100.00;99931.00;5066418;28;20063;-86
2021/08/08 08:38:30;;;;;;;0.20;0.20;;;;;;;14.33;100.00;99940.34;5065193;28;20068;-86
2021/08/08 08:41:04;;;;;;;0.20;0.20;;;;;;;14.30;100.00;99941.78;5065552;28;20054;-86
2021/08/08 08:44:04;;;;;;;0.20;0.20;;;;;;;14.34;100.00;99937.28;5064478;28;20041;-86
2021/08/08 08:46:37;;;;;;;0.20;0.20;;;;;;;14.35;100.00;99941.63;5065461;28;20044;-85
2021/08/08 08:49:11;;;;;;;0.20;0.20;;;;;;;14.36;100.00;99934.22;5068143;28;20049;-87
2021/08/08 08:51:44;;;;;;;0.30;0.20;;;;;;;14.42;100.00;99936.47;5066496;28;20493;-87
2021/08/08 08:54:19;;;;;;;0.22;0.22;;;;;;;14.52;100.00;99948.22;5067917;28;20539;-88
2021/08/08 08:56:52;;;;;;;0.28;0.20;;;;;;;14.54;100.00;99949.50;5070967;28;20540;-86
2021/08/08 08:59:30;;;;;;;0.20;0.20;;;;;;;14.47;100.00;99943.69;5067016;28;20059;-87
2021/08/08 09:02:06;;;;;;;0.20;0.20;;;;;;;14.76;100.00;99959.47;5041663;28;20049;-85
2021/08/08 09:04:39;;;;;;;0.20;0.20;;;;;;;14.76;100.00;99977.81;5046112;28;20045;-86
2021/08/08 09:07:12;;;;;;;0.20;0.20;;;;;;;14.87;100.00;99972.81;5046471;28;20049;-86
2021/08/08 09:09:46;;;;;;;0.20;0.20;;;;;;;14.86;100.00;99976.69;5050954;28;20056;-86
2021/08/08 09:12:21;;;;;;;0.20;0.20;;;;;;;15.10;100.00;99979.66;5049915;28;20057;-86
2021/08/08 09:15:01;;;;;;;0.20;0.20;;;;;;;15.03;100.00;99973.09;5048907;28;20497;-87
2021/08/08 09:17:38;;;;;;;0.20;0.20;;;;;;;15.06;100.00;99975.19;5052755;28;20060;-88
2021/08/08 09:20:13;;;;;;;0.30;0.30;;;;;;;15.12;100.00;99985.66;5049893;28;20060;-85
2021/08/08 09:22:57;;;;;;;0.20;0.20;;;;;;;15.31;100.00;99987.19;5059269;28;21403;-87
2021/08/08 09:25:31;;;;;;;0.20;0.20;;;;;;;15.21;100.00;99987.56;5051490;28;20053;-85
2021/08/08 09:28:09;;;;;;;0.20;0.20;;;;;;;15.39;100.00;99991.03;5051824;28;20045;-87
2021/08/08 09:30:43;;;;;;;0.15;0.15;;;;;;;15.65;100.00;99999.91;5050792;28;20049;-88
2021/08/08 09:33:18;;;;;;;0.20;0.20;;;;;;;15.75;100.00;99990.50;5048202;28;20060;-87
2021/08/08 09:35:53;;;;;;;0.30;0.30;;;;;;;15.72;99.94;100018.59;5051017;28;20059;-86
2021/08/08 09:38:26;;;;;;;0.20;0.20;;;;;;;15.51;100.00;100010.34;5050518;28;20045;-87
2021/08/08 09:40:59;;;;;;;0.47;0.30;;;;;;;15.71;100.00;100018.94;5050722;28;20053;-85
2021/08/08 09:43:33;;;;;;;0.20;0.20;;;;;;;15.72;100.00;100028.78;5045341;28;20056;-85
2021/08/08 09:46:17;;;;;;;0.20;0.20;;;;;;;15.49;99.94;100034.53;5047164;28;20075;-85
2021/08/08 09:48:47;;;;;;;0.30;0.20;;;;;;;15.43;100.00;100041.34;5049745;28;20056;-85
2021/08/08 09:51:21;;;;;;;0.20;0.20;;;;;;;15.33;99.41;100038.94;5049918;28;20049;-85
2021/08/08 09:53:56;;;;;;;0.57;0.30;;;;;;;15.53;100.00;100038.22;5051391;28;20060;-85
2021/08/08 09:56:29;;;;;;;0.30;0.30;;;;;;;15.88;100.00;100027.13;5049511;28;20056;-85
2021/08/08 09:59:09;;;;;;;0.20;0.20;;;;;;;15.83;96.98;100038.28;5047062;28;20053;-85
2021/08/08 10:01:42;;;;;;;0.20;0.20;;;;;;;16.02;99.71;100053.50;5045165;28;20069;-85
2021/08/08 10:04:19;;;;;;;0.20;0.20;;;;;;;15.98;99.31;100058.84;5059953;28;20048;-84
2021/08/08 10:06:54;;;;;;;0.20;0.20;;;;;;;15.93;99.09;100053.56;5047274;28;20049;-85
2021/08/08 10:09:29;;;;;;;0.20;0.20;;;;;;;16.20;99.64;100059.69;5048834;28;20071;-86
2021/08/08 10:12:13;;;;;;;0.20;0.20;;;;;;;16.27;99.10;100057.22;5049028;28;20053;-85
2021/08/08 10:14:44;;;;;;;0.22;0.22;;;;;;;16.45;99.17;100057.91;5044525;28;21311;-86
2021/08/08 10:17:23;;;;;;;0.25;0.25;;;;;;;16.57;97.81;100052.47;5043348;28;20061;-85
2021/08/08 10:20:00;;;;;;;0.25;0.25;;;;;;;16.81;98.58;100061.97;5051644;28;20057;-85
2021/08/08 10:22:37;;;;;;;0.20;0.20;;;;;;;16.79;96.05;100054.06;5051879;28;20052;-86
2021/08/08 10:25:06;;;;;;;0.20;0.20;;;;;;;16.66;94.57;100058.69;5049204;28;20065;-84
2021/08/08 10:27:46;;;;;;;0.20;0.20;;;;;;;16.78;93.26;100051.66;5048758;28;20421;-85
2021/08/08 10:30:19;;;;;;;0.20;0.20;;;;;;;16.80;93.40;100063.91;5047603;28;20063;-86
2021/08/08 10:32:53;;;;;;;0.20;0.20;;;;;;;16.82;90.93;100061.63;5048061;28;20048;-85
2021/08/08 10:35:36;;;;;;;0.25;0.25;;;;;;;16.86;91.80;100069.19;5046292;28;20064;-86
2021/08/08 10:38:05;;;;;;;0.20;0.20;;;;;;;16.93;95.10;100069.47;5046171;28;20048;-85
2021/08/08 10:40:40;;;;;;;0.20;0.20;;;;;;;16.72;89.78;100077.72;5045703;28;20057;-86
2021/08/08 10:43:09;;;;;;;0.20;0.20;;;;;;;16.67;91.47;100079.53;5048609;28;20060;-84
2021/08/08 10:45:38;;;;;;;0.28;0.28;;;;;;;16.81;94.42;100068.25;5044705;28;20059;-85
2021/08/08 10:48:10;;;;;;;0.20;0.20;;;;;;;16.77;90.76;100085.78;5050166;28;20071;-86
2021/08/08 10:50:48;;;;;;;2.00;0.20;;;;;;;16.56;91.01;100092.06;5047883;28;20056;-85
2021/08/08 10:53:23;;;;;;;0.20;0.20;;;;;;;16.43;92.38;100093.13;5048395;28;20057;-85
2021/08/08 10:56:05;;;;;;;0.25;0.22;;;;;;;16.26;91.77;100105.81;5046012;28;20663;-86
2021/08/08 10:58:34;;;;;;;0.20;0.20;;;;;;;16.33;91.56;100092.38;5045407;28;20069;-85
2021/08/08 11:01:16;;;;;;;0.40;0.30;;;;;;;16.34;90.58;100098.69;5048369;28;20551;-85
2021/08/08 11:03:53;;;;;;;0.30;0.30;;;;;;;16.25;91.79;100085.00;5044018;28;20052;-85
2021/08/08 11:06:25;;;;;;;0.20;0.20;;;;;;;16.30;92.44;100090.28;5050277;28;20064;-85
2021/08/08 11:08:57;;;;;;;0.20;0.20;;;;;;;16.45;91.59;100112.84;5049550;28;20063;-86
2021/08/08 11:11:34;;;;;;;0.20;0.20;;;;;;;16.63;91.43;100105.28;5047896;28;20049;-85
2021/08/08 11:14:10;;;;;;;0.20;0.20;;;;;;;16.52;91.07;100104.88;5049365;28;20515;-86
2021/08/08 11:16:45;;;;;;;0.20;0.20;;;;;;;16.52;89.41;100106.78;5051795;28;20071;-85
2021/08/08 11:19:18;;;;;;;0.28;0.20;;;;;;;16.53;92.01;100100.97;5048362;28;20333;-85
2021/08/08 11:21:48;;;;;;;0.20;0.20;;;;;;;16.43;89.38;100104.94;5047824;28;20056;-85
2021/08/08 11:24:18;;;;;;;0.20;0.20;;;;;;;16.56;88.02;100110.47;5048007;28;20567;-84
2021/08/08 11:26:50;;;;;;;0.20;0.20;;;;;;;16.79;92.80;100121.94;5048502;28;20053;-85
2021/08/08 11:29:23;;;;;;;0.30;0.30;;;;;;;17.02;88.40;100125.19;5051083;28;20052;-85
2021/08/08 11:32:01;;;;;;;0.20;0.20;;;;;;;17.02;84.27;100122.44;5052257;28;20052;-85
2021/08/08 11:34:30;;;;;;;0.20;0.20;;;;;;;17.14;89.40;100121.69;5050483;28;20642;-86
2021/08/08 11:37:02;;;;;;;0.20;0.20;;;;;;;17.35;86.94;100132.63;5058520;28;20064;-85
2021/08/08 11:39:36;;;;;;;;;;;;;;;17.30;84.87;100130.09;5052642;28;20053;-85
2021/08/08 11:42:08;;;;;;;0.20;0.20;;;;;;;17.33;87.31;100127.47;5051993;28;21196;-85
2021/08/08 11:44:43;;;;;;;0.20;0.20;;;;;;;17.35;87.32;100138.13;5055162;28;20052;-86
2021/08/08 11:47:11;;;;;;;0.20;0.20;;;;;;;17.26;88.06;100138.22;5048546;28;20055;-86
2021/08/08 11:49:44;;;;;;;0.20;0.20;;;;;;;17.26;89.15;100143.75;5046986;28;20414;-84
2021/08/08 11:52:20;;;;;;;0.20;0.20;;;;;;;17.87;86.71;100147.78;5048630;28;20405;-86
2021/08/08 11:55:00;;;;;;;0.20;0.20;;;;;;;18.27;86.34;100136.13;5047524;28;20437;-87
2021/08/08 11:57:38;;;;;;;0.20;0.20;;;;;;;18.48;83.09;100146.19;5050210;28;20052;-85
2021/08/08 12:00:13;;;;;;;0.20;0.20;;;;;;;18.34;81.44;100157.56;5051610;28;20057;-86
2021/08/08 12:02:42;;;;;;;0.20;0.20;;;;;;;18.21;79.04;100140.22;5045545;28;20045;-85
2021/08/08 12:05:13;;;;;;;0.20;0.20;;;;;;;17.95;80.36;100154.34;5047996;28;20061;-85
2021/08/08 12:07:51;;;;;;;0.20;0.20;;;;;;;17.98;80.50;100151.72;5050918;28;20041;-86
2021/08/08 12:10:27;;;;;;;0.20;0.20;;;;;;;17.97;83.05;100157.56;5046574;28;20052;-86
2021/08/08 12:12:56;;;;;;;1.38;0.30;;;;;;;17.69;79.75;100144.44;5051578;28;20075;-85
2021/08/08 12:15:35;;;;;;;0.20;0.20;;;;;;;17.73;84.67;100170.13;5048916;28;20594;-86